createdAt,value
2019-03-20T00:00:07.957Z,141961.61
2019-03-20T00:05:05.070Z,142002.41
2019-03-20T00:10:01.091Z,141974.44
2019-03-20T00:14:57.003Z,141993.08
2019-03-20T00:19:52.937Z,141960.47
2019-03-20T00:24:49.579Z,142003.61
2019-03-20T00:29:45.479Z,141965.09
2019-03-20T00:34:41.394Z,141995.42
2019-03-20T00:39:37.405Z,141953.47
2019-03-20T00:44:33.315Z,141853.20
2019-03-20T00:49:29.238Z,141801.97
2019-03-20T00:54:31.291Z,141755.36
2019-03-20T00:59:27.281Z,141714.59
2019-03-20T01:04:23.207Z,141698.31
2019-03-20T01:09:19.121Z,141829.92
2019-03-20T01:14:15.047Z,141762.34
2019-03-20T01:19:10.958Z,141736.72
2019-03-20T01:24:11.201Z,141622.59
2019-03-20T01:29:07.214Z,141592.36
2019-03-20T01:34:03.259Z,141591.16
2019-03-20T01:38:59.165Z,141697.11
2019-03-20T01:43:55.068Z,141662.19
2019-03-20T01:48:50.978Z,141690.14
2019-03-20T01:53:48.536Z,141562.08
2019-03-20T01:58:44.571Z,141671.50
2019-03-20T02:03:40.956Z,141746.05
2019-03-20T02:08:36.991Z,141692.48
2019-03-20T02:13:32.904Z,141579.56
2019-03-20T02:18:28.821Z,141565.56
2019-03-20T02:23:24.707Z,141552.77
2019-03-20T02:28:20.767Z,141650.53
2019-03-20T02:33:16.675Z,141645.91
2019-03-20T02:38:12.622Z,141560.94
2019-03-20T02:43:08.503Z,141627.27
2019-03-20T02:48:04.527Z,141528.31
2019-03-20T02:53:00.445Z,141510.89
2019-03-20T02:57:56.383Z,141524.83
2019-03-20T03:02:52.296Z,141475.94
2019-03-20T03:07:48.253Z,141441.05
2019-03-20T03:12:44.262Z,141524.83
2019-03-20T03:17:40.166Z,141459.66
2019-03-20T03:22:36.079Z,141427.11
2019-03-20T03:27:31.995Z,141513.19
2019-03-20T03:32:27.951Z,141446.88
2019-03-20T03:37:23.910Z,141427.11
2019-03-20T03:42:19.826Z,141496.91
2019-03-20T03:47:15.731Z,141513.19
2019-03-20T03:52:11.667Z,141576.02
2019-03-20T03:57:07.598Z,141467.83
2019-03-20T04:02:03.607Z,141462.00
2019-03-20T04:06:59.579Z,141481.77
2019-03-20T04:11:55.487Z,141424.77
2019-03-20T04:16:51.412Z,141465.48
2019-03-20T04:21:47.349Z,141459.66
2019-03-20T04:26:43.258Z,141465.48
2019-03-20T04:31:39.229Z,141548.09
2019-03-20T04:36:46.764Z,141590.02
2019-03-20T04:41:33.003Z,141593.50
2019-03-20T04:46:29.002Z,141650.53
2019-03-20T04:51:24.911Z,141792.64
2019-03-20T04:56:20.853Z,141746.05
2019-03-20T05:01:16.762Z,141758.84
2019-03-20T05:06:12.719Z,141755.36
2019-03-20T05:11:09.022Z,141757.70
2019-03-20T05:16:04.933Z,141757.70
2019-03-20T05:21:00.858Z,141827.59
2019-03-20T05:25:56.779Z,141788.00
2019-03-20T05:30:52.718Z,141782.17
2019-03-20T05:35:48.626Z,141811.28
2019-03-20T05:40:44.533Z,141853.20
2019-03-20T05:45:40.424Z,141804.31
2019-03-20T05:50:36.347Z,141832.27
2019-03-20T05:55:32.294Z,141970.94
2019-03-20T06:00:30.132Z,142163.37
2019-03-20T06:05:26.047Z,142499.58
2019-03-20T06:10:21.960Z,142469.19
2019-03-20T06:15:17.883Z,142906.41
2019-03-20T06:20:14.097Z,143188.45
2019-03-20T06:25:11.767Z,143310.31
2019-03-20T06:30:18.183Z,143281.00
2019-03-20T06:35:14.203Z,143747.63
2019-03-20T06:40:17.129Z,143984.72
2019-03-20T06:45:17.108Z,143978.84
2019-03-20T06:50:15.454Z,143868.50
2019-03-20T06:55:11.473Z,143703.00
2019-03-20T07:00:32.086Z,143466.17
2019-03-20T07:05:48.544Z,143288.02
2019-03-20T07:10:50.872Z,143077.22
2019-03-20T07:15:46.782Z,143005.86
2019-03-20T07:20:42.702Z,142977.78
2019-03-20T07:25:38.632Z,143010.52
2019-03-20T07:30:34.542Z,142966.06
2019-03-20T07:35:30.560Z,142971.92
2019-03-20T07:40:26.466Z,142993.00
2019-03-20T07:45:22.381Z,143001.16
2019-03-20T07:50:18.290Z,143079.56
2019-03-20T07:55:14.197Z,143118.22
2019-03-20T08:00:12.120Z,143114.67
2019-03-20T08:05:09.040Z,143163.86
2019-03-20T08:10:11.987Z,143243.52
2019-03-20T08:15:13.063Z,143273.94
2019-03-20T08:20:11.574Z,143142.78
2019-03-20T08:25:07.731Z,143232.94
2019-03-20T08:30:07.452Z,143436.84
2019-03-20T08:35:05.770Z,143433.33
2019-03-20T08:40:02.798Z,143514.22
2019-03-20T08:44:58.720Z,143590.41
2019-03-20T08:49:54.632Z,143653.72
2019-03-20T08:54:51.245Z,143646.70
2019-03-20T08:59:47.223Z,143677.22
2019-03-20T09:04:43.142Z,143769.95
2019-03-20T09:09:39.049Z,143853.25
2019-03-20T09:14:34.994Z,143814.53
2019-03-20T09:19:30.900Z,143856.75
2019-03-20T09:24:27.663Z,143918.98
2019-03-20T09:29:23.588Z,143994.13
2019-03-20T09:34:19.497Z,143972.97
2019-03-20T09:39:15.413Z,143985.88
2019-03-20T09:44:11.322Z,143964.78
2019-03-20T09:49:07.263Z,144128.08
2019-03-20T09:54:09.329Z,144093.95
2019-03-20T09:59:05.379Z,144034.06
2019-03-20T10:04:01.349Z,144095.11
2019-03-20T10:08:57.246Z,144175.06
2019-03-20T10:13:53.255Z,144109.28
2019-03-20T10:18:49.176Z,144056.38
2019-03-20T10:23:46.562Z,144105.72
2019-03-20T10:28:42.571Z,144149.19
2019-03-20T10:33:38.478Z,144252.59
2019-03-20T10:38:35.263Z,144278.44
2019-03-20T10:43:31.182Z,144203.28
2019-03-20T10:48:27.199Z,144143.31
2019-03-20T10:53:23.113Z,144200.91
2019-03-20T10:58:19.063Z,144191.50
2019-03-20T11:03:15.065Z,144214.98
2019-03-20T11:08:12.926Z,144224.39
2019-03-20T11:13:08.839Z,144314.89
2019-03-20T11:18:04.754Z,144313.73
2019-03-20T11:23:00.764Z,144249.08
2019-03-20T11:27:56.685Z,144231.42
2019-03-20T11:32:52.799Z,144217.34
2019-03-20T11:37:48.769Z,144256.11
2019-03-20T11:42:44.673Z,144307.86
2019-03-20T11:47:40.584Z,144327.81
2019-03-20T11:52:36.516Z,144319.63
2019-03-20T11:57:32.454Z,144285.53
2019-03-20T12:02:28.734Z,144294.94
2019-03-20T12:07:24.887Z,144358.41
2019-03-20T12:12:20.810Z,144397.19
2019-03-20T12:17:16.749Z,144400.70
2019-03-20T12:22:12.671Z,144320.78
2019-03-20T12:27:15.130Z,144357.23
2019-03-20T12:32:06.390Z,144330.19
2019-03-20T12:37:02.312Z,144256.11
2019-03-20T12:41:58.224Z,144257.31
2019-03-20T12:46:54.132Z,144276.13
2019-03-20T12:51:50.046Z,144260.84
2019-03-20T12:56:46.000Z,144246.70
2019-03-20T13:01:41.910Z,144305.48
2019-03-20T13:06:39.352Z,144307.86
2019-03-20T13:11:35.316Z,144319.63
2019-03-20T13:16:32.048Z,144292.56
2019-03-20T13:21:28.380Z,144309.02
2019-03-20T13:26:24.457Z,144310.22
2019-03-20T13:31:21.973Z,144340.75
2019-03-20T13:36:18.500Z,144403.06
2019-03-20T13:41:14.389Z,144309.02
2019-03-20T13:46:10.352Z,144358.41
2019-03-20T13:51:06.271Z,144374.84
2019-03-20T13:56:02.349Z,144363.08
2019-03-20T14:00:58.263Z,144354.88
2019-03-20T14:05:54.185Z,144298.45
2019-03-20T14:10:50.848Z,144326.66
2019-03-20T14:15:46.978Z,144303.13
2019-03-20T14:20:42.912Z,144296.09
2019-03-20T14:25:38.889Z,144285.53
2019-03-20T14:30:34.832Z,144299.61
2019-03-20T14:35:30.755Z,144327.81
2019-03-20T14:40:37.651Z,144384.25
2019-03-20T14:45:28.342Z,144424.28
2019-03-20T14:50:28.346Z,144440.75
2019-03-20T14:55:24.390Z,144419.56
2019-03-20T15:00:23.334Z,144412.47
2019-03-20T15:05:19.278Z,144423.09
2019-03-20T15:10:45.729Z,144360.77
2019-03-20T15:15:41.317Z,144313.73
2019-03-20T15:20:37.258Z,144318.41
2019-03-20T15:25:33.195Z,144346.63
2019-03-20T15:30:29.822Z,144299.61
2019-03-20T15:35:25.965Z,144280.80
2019-03-20T15:40:26.453Z,144306.66
2019-03-20T15:45:22.383Z,144287.84
2019-03-20T15:50:19.775Z,144256.11
2019-03-20T15:55:22.605Z,144269.03
2019-03-20T16:00:19.854Z,144266.72
2019-03-20T16:05:17.171Z,144273.75
2019-03-20T16:10:22.019Z,144283.16
2019-03-20T16:15:19.844Z,144251.44
2019-03-20T16:20:15.972Z,144231.42
2019-03-20T16:25:18.973Z,144238.52
2019-03-20T16:30:18.009Z,144235.00
2019-03-20T16:35:13.937Z,144214.98
2019-03-20T16:40:12.659Z,144222.08
2019-03-20T16:45:35.217Z,144213.83
2019-03-20T16:50:31.203Z,144203.28
2019-03-20T16:55:27.422Z,144193.87
2019-03-20T17:00:30.781Z,144225.59
2019-03-20T17:05:31.020Z,144271.41
2019-03-20T17:10:48.798Z,144270.25
2019-03-20T17:15:52.048Z,144212.67
2019-03-20T17:20:53.126Z,144182.11
2019-03-20T17:25:51.166Z,144155.06
2019-03-20T17:30:52.492Z,144139.78
2019-03-20T17:35:52.707Z,144138.63
2019-03-20T17:40:49.944Z,144111.59
2019-03-20T17:45:51.725Z,144088.08
2019-03-20T17:50:50.248Z,144058.73
2019-03-20T17:55:51.894Z,143996.48
2019-03-20T18:00:49.871Z,143937.77
2019-03-20T18:05:45.946Z,143916.63
2019-03-20T18:10:41.882Z,144034.06
2019-03-20T18:15:37.810Z,144001.16
2019-03-20T18:20:33.966Z,143972.97
2019-03-20T18:25:30.415Z,144026.98
2019-03-20T18:30:28.785Z,144014.06
2019-03-20T18:35:24.801Z,143987.09
2019-03-20T18:40:25.207Z,143975.33
2019-03-20T18:45:25.966Z,143881.41
2019-03-20T18:50:22.771Z,143938.92
2019-03-20T18:55:19.858Z,143944.80
2019-03-20T19:00:54.860Z,144008.19
2019-03-20T19:05:57.307Z,143889.66
2019-03-20T19:10:53.362Z,143792.23
2019-03-20T19:15:49.386Z,143749.97
2019-03-20T19:20:45.382Z,143708.87
2019-03-20T19:25:41.645Z,143691.25
2019-03-20T19:30:37.724Z,143695.97
2019-03-20T19:35:33.661Z,143672.48
2019-03-20T19:40:29.598Z,143664.31
2019-03-20T19:45:25.521Z,143653.72
2019-03-20T19:50:22.347Z,143645.55
2019-03-20T19:55:19.079Z,143634.97
2019-03-20T20:00:21.431Z,143633.81
2019-03-20T20:05:17.453Z,143632.66
2019-03-20T20:10:17.501Z,143623.27
2019-03-20T20:15:27.212Z,143651.41
2019-03-20T20:20:28.929Z,143667.83
2019-03-20T20:25:25.550Z,143653.72
2019-03-20T20:30:21.536Z,143651.41
2019-03-20T20:35:17.456Z,143660.80
2019-03-20T20:40:17.819Z,143679.56
2019-03-20T20:45:13.742Z,143670.19
2019-03-20T20:50:12.564Z,143686.59
2019-03-20T20:55:11.610Z,143688.95
2019-03-20T21:00:16.778Z,143713.59
2019-03-20T21:05:12.808Z,143707.72
2019-03-20T21:10:14.051Z,143700.64
2019-03-20T21:15:33.362Z,143700.64
2019-03-20T21:20:29.286Z,143712.39
2019-03-20T21:25:26.302Z,143718.27
2019-03-20T21:30:51.217Z,143707.72
2019-03-20T21:36:07.817Z,143728.80
2019-03-20T21:41:16.756Z,143712.39
2019-03-20T21:46:19.443Z,143688.95
2019-03-20T21:51:15.963Z,143670.19
2019-03-20T21:56:18.492Z,143668.98
2019-03-20T22:01:39.040Z,143674.84
2019-03-20T22:06:56.574Z,143678.36
2019-03-20T22:12:15.936Z,143674.84
2019-03-20T22:17:32.569Z,143670.19
2019-03-20T22:22:35.284Z,143656.08
2019-03-20T22:27:35.042Z,143629.14
2019-03-20T22:33:08.503Z,143625.63
2019-03-20T22:38:07.912Z,143611.53
2019-03-20T22:43:13.490Z,143613.87
2019-03-20T22:48:32.577Z,143616.25
2019-03-20T22:53:35.097Z,143599.78
2019-03-20T22:58:44.589Z,143592.77
2019-03-20T23:03:53.063Z,143583.37
2019-03-20T23:08:48.988Z,143585.73
2019-03-20T23:13:44.908Z,143586.91
2019-03-20T23:18:40.825Z,143582.22
2019-03-20T23:23:37.515Z,143581.03
2019-03-20T23:28:33.436Z,143678.36
2019-03-20T23:33:29.357Z,143649.06
2019-03-20T23:38:25.319Z,143735.92
2019-03-20T23:43:21.232Z,143651.41
2019-03-20T23:48:37.829Z,143623.27
2019-03-20T23:53:34.562Z,143604.50
2019-03-20T23:58:30.522Z,143583.37
